sensor_id;sensor_type;location;lat;lon;timestamp;P1;durP1;ratioP1;P2;durP2;ratioP2
21848;SDS011;11089;49.852;19.700;2024-03-29T00:02:39;2.08;;;1.33;;
21848;SDS011;11089;49.852;19.700;2024-03-29T00:05:40;2.38;;;1.58;;
21848;SDS011;11089;49.852;19.700;2024-03-29T00:08:41;2.28;;;1.70;;
21848;SDS011;11089;49.852;19.700;2024-03-29T00:11:42;3.22;;;1.90;;
21848;SDS011;11089;49.852;19.700;2024-03-29T00:14:43;3.60;;;1.55;;
21848;SDS011;11089;49.852;19.700;2024-03-29T00:17:44;4.57;;;3.35;;
21848;SDS011;11089;49.852;19.700;2024-03-29T00:20:45;1.67;;;1.25;;
21848;SDS011;11089;49.852;19.700;2024-03-29T00:23:46;2.97;;;1.40;;
21848;SDS011;11089;49.852;19.700;2024-03-29T00:26:48;2.35;;;1.42;;
21848;SDS011;11089;49.852;19.700;2024-03-29T00:29:49;3.13;;;1.20;;
21848;SDS011;11089;49.852;19.700;2024-03-29T00:32:53;4.72;;;1.10;;
21848;SDS011;11089;49.852;19.700;2024-03-29T00:35:54;2.83;;;1.20;;
21848;SDS011;11089;49.852;19.700;2024-03-29T00:38:55;2.88;;;1.10;;
21848;SDS011;11089;49.852;19.700;2024-03-29T00:41:55;2.03;;;1.13;;
21848;SDS011;11089;49.852;19.700;2024-03-29T00:44:56;2.38;;;1.45;;
21848;SDS011;11089;49.852;19.700;2024-03-29T00:47:57;4.88;;;2.00;;
21848;SDS011;11089;49.852;19.700;2024-03-29T00:50:58;4.15;;;1.85;;
21848;SDS011;11089;49.852;19.700;2024-03-29T00:53:59;7.60;;;2.33;;
21848;SDS011;11089;49.852;19.700;2024-03-29T00:57:00;5.88;;;2.63;;
21848;SDS011;11089;49.852;19.700;2024-03-29T01:00:01;5.47;;;2.05;;
21848;SDS011;11089;49.852;19.700;2024-03-29T01:03:04;5.15;;;1.70;;
21848;SDS011;11089;49.852;19.700;2024-03-29T01:06:05;2.15;;;1.25;;
21848;SDS011;11089;49.852;19.700;2024-03-29T01:09:06;1.83;;;0.98;;
21848;SDS011;11089;49.852;19.700;2024-03-29T01:12:11;1.10;;;0.98;;
21848;SDS011;11089;49.852;19.700;2024-03-29T01:15:12;1.80;;;0.98;;
21848;SDS011;11089;49.852;19.700;2024-03-29T01:18:13;2.15;;;1.27;;
21848;SDS011;11089;49.852;19.700;2024-03-29T01:21:14;1.23;;;0.90;;
21848;SDS011;11089;49.852;19.700;2024-03-29T01:24:15;1.42;;;0.88;;
21848;SDS011;11089;49.852;19.700;2024-03-29T01:27:16;1.80;;;0.88;;
21848;SDS011;11089;49.852;19.700;2024-03-29T01:30:17;1.35;;;0.90;;
21848;SDS011;11089;49.852;19.700;2024-03-29T01:33:18;1.65;;;0.80;;
21848;SDS011;11089;49.852;19.700;2024-03-29T01:36:19;1.75;;;1.00;;
21848;SDS011;11089;49.852;19.700;2024-03-29T01:39:20;1.98;;;1.30;;
21848;SDS011;11089;49.852;19.700;2024-03-29T01:42:26;4.38;;;1.17;;
21848;SDS011;11089;49.852;19.700;2024-03-29T01:45:27;1.60;;;1.23;;
21848;SDS011;11089;49.852;19.700;2024-03-29T01:48:30;2.53;;;1.40;;
21848;SDS011;11089;49.852;19.700;2024-03-29T01:51:31;2.33;;;1.02;;
21848;SDS011;11089;49.852;19.700;2024-03-29T01:54:35;2.83;;;1.63;;
21848;SDS011;11089;49.852;19.700;2024-03-29T01:57:36;3.83;;;1.20;;
21848;SDS011;11089;49.852;19.700;2024-03-29T02:00:53;1.92;;;1.10;;
21848;SDS011;11089;49.852;19.700;2024-03-29T02:03:58;2.67;;;1.30;;
21848;SDS011;11089;49.852;19.700;2024-03-29T02:06:59;1.77;;;1.17;;
21848;SDS011;11089;49.852;19.700;2024-03-29T02:10:01;2.25;;;1.40;;
21848;SDS011;11089;49.852;19.700;2024-03-29T02:13:03;2.60;;;1.42;;
21848;SDS011;11089;49.852;19.700;2024-03-29T02:16:04;3.10;;;1.30;;
21848;SDS011;11089;49.852;19.700;2024-03-29T02:19:05;3.08;;;1.58;;
21848;SDS011;11089;49.852;19.700;2024-03-29T02:22:06;5.40;;;1.60;;
21848;SDS011;11089;49.852;19.700;2024-03-29T02:25:10;2.83;;;1.20;;
21848;SDS011;11089;49.852;19.700;2024-03-29T02:28:12;2.65;;;1.50;;
21848;SDS011;11089;49.852;19.700;2024-03-29T02:31:13;1.88;;;1.38;;
21848;SDS011;11089;49.852;19.700;2024-03-29T02:34:15;1.10;;;1.00;;
21848;SDS011;11089;49.852;19.700;2024-03-29T02:37:16;2.35;;;1.55;;
21848;SDS011;11089;49.852;19.700;2024-03-29T02:40:18;3.35;;;1.33;;
21848;SDS011;11089;49.852;19.700;2024-03-29T02:43:19;1.83;;;1.10;;
21848;SDS011;11089;49.852;19.700;2024-03-29T02:46:20;2.65;;;1.65;;
21848;SDS011;11089;49.852;19.700;2024-03-29T02:49:22;3.17;;;1.30;;
21848;SDS011;11089;49.852;19.700;2024-03-29T02:52:23;2.30;;;1.20;;
21848;SDS011;11089;49.852;19.700;2024-03-29T02:55:24;1.60;;;1.27;;
21848;SDS011;11089;49.852;19.700;2024-03-29T02:58:25;2.05;;;1.45;;
21848;SDS011;11089;49.852;19.700;2024-03-29T03:01:26;2.72;;;1.48;;
21848;SDS011;11089;49.852;19.700;2024-03-29T03:04:27;1.80;;;1.50;;
21848;SDS011;11089;49.852;19.700;2024-03-29T03:07:28;1.85;;;1.30;;
21848;SDS011;11089;49.852;19.700;2024-03-29T03:10:47;1.80;;;1.30;;
21848;SDS011;11089;49.852;19.700;2024-03-29T03:13:59;2.10;;;1.23;;
21848;SDS011;11089;49.852;19.700;2024-03-29T03:17:00;2.22;;;1.45;;
21848;SDS011;11089;49.852;19.700;2024-03-29T03:20:01;3.70;;;1.52;;
21848;SDS011;11089;49.852;19.700;2024-03-29T03:23:05;3.83;;;1.70;;
21848;SDS011;11089;49.852;19.700;2024-03-29T03:26:06;1.55;;;1.10;;
21848;SDS011;11089;49.852;19.700;2024-03-29T03:29:07;1.35;;;1.17;;
21848;SDS011;11089;49.852;19.700;2024-03-29T03:32:09;1.45;;;1.23;;
21848;SDS011;11089;49.852;19.700;2024-03-29T03:35:10;2.28;;;1.30;;
21848;SDS011;11089;49.852;19.700;2024-03-29T03:38:11;1.63;;;1.33;;
21848;SDS011;11089;49.852;19.700;2024-03-29T03:41:13;1.33;;;1.23;;
21848;SDS011;11089;49.852;19.700;2024-03-29T03:44:14;1.20;;;1.10;;
21848;SDS011;11089;49.852;19.700;2024-03-29T03:47:15;2.58;;;1.23;;
21848;SDS011;11089;49.852;19.700;2024-03-29T03:50:15;1.38;;;1.23;;
21848;SDS011;11089;49.852;19.700;2024-03-29T03:53:16;3.10;;;1.40;;
21848;SDS011;11089;49.852;19.700;2024-03-29T03:56:18;2.97;;;1.58;;
21848;SDS011;11089;49.852;19.700;2024-03-29T03:59:19;2.10;;;1.35;;
21848;SDS011;11089;49.852;19.700;2024-03-29T04:02:20;2.25;;;1.50;;
21848;SDS011;11089;49.852;19.700;2024-03-29T04:05:21;1.45;;;1.05;;
21848;SDS011;11089;49.852;19.700;2024-03-29T04:08:22;1.67;;;1.40;;
21848;SDS011;11089;49.852;19.700;2024-03-29T04:11:23;2.60;;;1.25;;
21848;SDS011;11089;49.852;19.700;2024-03-29T04:14:24;2.85;;;1.45;;
21848;SDS011;11089;49.852;19.700;2024-03-29T04:17:25;1.83;;;1.15;;
21848;SDS011;11089;49.852;19.700;2024-03-29T04:20:26;2.33;;;1.27;;
21848;SDS011;11089;49.852;19.700;2024-03-29T04:23:27;2.13;;;1.40;;
21848;SDS011;11089;49.852;19.700;2024-03-29T04:26:29;1.70;;;1.38;;
21848;SDS011;11089;49.852;19.700;2024-03-29T04:29:30;1.20;;;0.95;;
21848;SDS011;11089;49.852;19.700;2024-03-29T04:32:30;3.05;;;1.10;;
21848;SDS011;11089;49.852;19.700;2024-03-29T04:35:32;3.08;;;1.20;;
21848;SDS011;11089;49.852;19.700;2024-03-29T04:38:33;2.90;;;1.30;;
21848;SDS011;11089;49.852;19.700;2024-03-29T04:41:35;1.80;;;1.10;;
21848;SDS011;11089;49.852;19.700;2024-03-29T04:44:36;1.85;;;1.20;;
21848;SDS011;11089;49.852;19.700;2024-03-29T04:47:40;2.65;;;1.13;;
21848;SDS011;11089;49.852;19.700;2024-03-29T04:50:41;2.20;;;1.42;;
21848;SDS011;11089;49.852;19.700;2024-03-29T04:53:42;2.15;;;1.30;;
21848;SDS011;11089;49.852;19.700;2024-03-29T04:56:43;2.03;;;1.38;;
21848;SDS011;11089;49.852;19.700;2024-03-29T04:59:44;1.98;;;1.27;;
21848;SDS011;11089;49.852;19.700;2024-03-29T05:02:45;2.63;;;1.55;;
21848;SDS011;11089;49.852;19.700;2024-03-29T05:05:46;2.25;;;1.20;;
21848;SDS011;11089;49.852;19.700;2024-03-29T05:08:48;1.98;;;1.15;;
21848;SDS011;11089;49.852;19.700;2024-03-29T05:11:49;2.38;;;1.15;;
21848;SDS011;11089;49.852;19.700;2024-03-29T05:14:50;1.50;;;1.05;;
21848;SDS011;11089;49.852;19.700;2024-03-29T05:17:51;1.17;;;0.98;;
21848;SDS011;11089;49.852;19.700;2024-03-29T05:20:53;1.23;;;0.82;;
21848;SDS011;11089;49.852;19.700;2024-03-29T05:23:54;1.38;;;0.93;;
21848;SDS011;11089;49.852;19.700;2024-03-29T05:26:55;1.90;;;1.10;;
21848;SDS011;11089;49.852;19.700;2024-03-29T05:29:56;1.27;;;0.85;;
21848;SDS011;11089;49.852;19.700;2024-03-29T05:32:57;2.58;;;1.00;;
21848;SDS011;11089;49.852;19.700;2024-03-29T05:35:58;2.65;;;1.02;;
21848;SDS011;11089;49.852;19.700;2024-03-29T05:38:59;1.20;;;1.00;;
21848;SDS011;11089;49.852;19.700;2024-03-29T05:42:00;1.77;;;1.00;;
21848;SDS011;11089;49.852;19.700;2024-03-29T05:45:02;3.25;;;0.90;;
21848;SDS011;11089;49.852;19.700;2024-03-29T05:48:22;1.50;;;1.00;;
21848;SDS011;11089;49.852;19.700;2024-03-29T05:51:23;1.10;;;0.88;;
21848;SDS011;11089;49.852;19.700;2024-03-29T05:54:24;2.30;;;0.88;;
21848;SDS011;11089;49.852;19.700;2024-03-29T05:57:26;1.52;;;1.02;;
21848;SDS011;11089;49.852;19.700;2024-03-29T06:00:31;1.92;;;1.00;;
21848;SDS011;11089;49.852;19.700;2024-03-29T06:03:36;1.25;;;0.90;;
21848;SDS011;11089;49.852;19.700;2024-03-29T06:06:37;0.80;;;0.80;;
21848;SDS011;11089;49.852;19.700;2024-03-29T06:09:38;1.95;;;1.20;;
21848;SDS011;11089;49.852;19.700;2024-03-29T06:12:39;1.73;;;0.95;;
21848;SDS011;11089;49.852;19.700;2024-03-29T06:15:41;1.88;;;0.90;;
21848;SDS011;11089;49.852;19.700;2024-03-29T06:18:55;1.23;;;1.00;;
21848;SDS011;11089;49.852;19.700;2024-03-29T06:21:56;5.13;;;1.20;;
21848;SDS011;11089;49.852;19.700;2024-03-29T06:24:58;1.20;;;1.00;;
21848;SDS011;11089;49.852;19.700;2024-03-29T06:27:59;1.20;;;1.10;;
21848;SDS011;11089;49.852;19.700;2024-03-29T06:31:00;1.40;;;0.90;;
21848;SDS011;11089;49.852;19.700;2024-03-29T06:34:02;1.90;;;1.00;;
21848;SDS011;11089;49.852;19.700;2024-03-29T06:37:03;1.75;;;1.00;;
21848;SDS011;11089;49.852;19.700;2024-03-29T06:40:05;2.45;;;1.00;;
21848;SDS011;11089;49.852;19.700;2024-03-29T06:43:08;1.85;;;1.15;;
21848;SDS011;11089;49.852;19.700;2024-03-29T06:46:11;3.05;;;1.00;;
21848;SDS011;11089;49.852;19.700;2024-03-29T06:49:12;3.92;;;1.65;;
21848;SDS011;11089;49.852;19.700;2024-03-29T06:52:13;2.35;;;1.20;;
21848;SDS011;11089;49.852;19.700;2024-03-29T06:55:15;2.05;;;1.10;;
21848;SDS011;11089;49.852;19.700;2024-03-29T06:58:16;3.58;;;1.05;;
21848;SDS011;11089;49.852;19.700;2024-03-29T07:01:17;1.98;;;0.88;;
21848;SDS011;11089;49.852;19.700;2024-03-29T07:04:19;2.17;;;0.93;;
21848;SDS011;11089;49.852;19.700;2024-03-29T07:07:21;2.47;;;1.00;;
21848;SDS011;11089;49.852;19.700;2024-03-29T07:10:22;1.30;;;0.90;;
21848;SDS011;11089;49.852;19.700;2024-03-29T07:13:23;1.70;;;1.00;;
21848;SDS011;11089;49.852;19.700;2024-03-29T07:16:24;1.67;;;1.00;;
21848;SDS011;11089;49.852;19.700;2024-03-29T07:19:26;1.25;;;0.85;;
21848;SDS011;11089;49.852;19.700;2024-03-29T07:22:27;1.25;;;0.82;;
21848;SDS011;11089;49.852;19.700;2024-03-29T07:25:28;1.40;;;0.93;;
21848;SDS011;11089;49.852;19.700;2024-03-29T07:28:29;2.05;;;1.15;;
21848;SDS011;11089;49.852;19.700;2024-03-29T07:31:31;3.65;;;1.13;;
21848;SDS011;11089;49.852;19.700;2024-03-29T07:34:33;4.63;;;1.40;;
21848;SDS011;11089;49.852;19.700;2024-03-29T07:37:34;5.65;;;1.80;;
21848;SDS011;11089;49.852;19.700;2024-03-29T07:40:35;1.52;;;1.10;;
21848;SDS011;11089;49.852;19.700;2024-03-29T07:43:39;1.15;;;0.80;;
21848;SDS011;11089;49.852;19.700;2024-03-29T07:46:41;2.17;;;1.00;;
21848;SDS011;11089;49.852;19.700;2024-03-29T07:49:43;1.83;;;1.10;;
21848;SDS011;11089;49.852;19.700;2024-03-29T07:52:46;1.55;;;0.93;;
21848;SDS011;11089;49.852;19.700;2024-03-29T07:55:49;1.38;;;1.08;;
21848;SDS011;11089;49.852;19.700;2024-03-29T07:58:51;1.50;;;0.80;;
21848;SDS011;11089;49.852;19.700;2024-03-29T08:01:53;2.35;;;1.08;;
21848;SDS011;11089;49.852;19.700;2024-03-29T08:04:56;1.25;;;1.00;;
21848;SDS011;11089;49.852;19.700;2024-03-29T08:07:57;0.82;;;0.65;;
21848;SDS011;11089;49.852;19.700;2024-03-29T08:10:58;1.85;;;1.08;;
21848;SDS011;11089;49.852;19.700;2024-03-29T08:14:00;3.40;;;0.98;;
21848;SDS011;11089;49.852;19.700;2024-03-29T08:17:02;1.55;;;0.95;;
21848;SDS011;11089;49.852;19.700;2024-03-29T08:20:05;0.80;;;0.80;;
21848;SDS011;11089;49.852;19.700;2024-03-29T08:23:06;2.67;;;0.88;;
21848;SDS011;11089;49.852;19.700;2024-03-29T08:26:07;0.80;;;0.60;;
21848;SDS011;11089;49.852;19.700;2024-03-29T08:29:08;1.23;;;0.75;;
21848;SDS011;11089;49.852;19.700;2024-03-29T08:32:09;0.85;;;0.57;;
21848;SDS011;11089;49.852;19.700;2024-03-29T08:35:11;0.98;;;0.60;;
21848;SDS011;11089;49.852;19.700;2024-03-29T08:38:12;1.65;;;0.90;;
21848;SDS011;11089;49.852;19.700;2024-03-29T08:41:13;0.88;;;0.60;;
21848;SDS011;11089;49.852;19.700;2024-03-29T08:44:15;2.47;;;0.75;;
21848;SDS011;11089;49.852;19.700;2024-03-29T08:47:16;1.30;;;0.80;;
21848;SDS011;11089;49.852;19.700;2024-03-29T08:50:17;1.33;;;0.90;;
21848;SDS011;11089;49.852;19.700;2024-03-29T08:53:18;1.25;;;0.70;;
21848;SDS011;11089;49.852;19.700;2024-03-29T08:56:21;0.70;;;0.60;;
21848;SDS011;11089;49.852;19.700;2024-03-29T08:59:22;0.98;;;0.75;;
21848;SDS011;11089;49.852;19.700;2024-03-29T09:02:24;1.08;;;0.77;;
21848;SDS011;11089;49.852;19.700;2024-03-29T09:05:25;1.67;;;1.00;;
21848;SDS011;11089;49.852;19.700;2024-03-29T09:08:29;0.98;;;0.70;;
21848;SDS011;11089;49.852;19.700;2024-03-29T09:11:30;2.58;;;0.80;;
21848;SDS011;11089;49.852;19.700;2024-03-29T09:14:34;0.57;;;0.43;;
21848;SDS011;11089;49.852;19.700;2024-03-29T09:17:44;0.60;;;0.57;;
21848;SDS011;11089;49.852;19.700;2024-03-29T09:20:59;0.60;;;0.57;;
21848;SDS011;11089;49.852;19.700;2024-03-29T09:24:06;0.70;;;0.70;;
21848;SDS011;11089;49.852;19.700;2024-03-29T09:27:13;2.42;;;0.90;;
21848;SDS011;11089;49.852;19.700;2024-03-29T09:30:15;0.60;;;0.60;;
21848;SDS011;11089;49.852;19.700;2024-03-29T09:33:19;0.80;;;0.50;;
21848;SDS011;11089;49.852;19.700;2024-03-29T09:36:21;0.90;;;0.80;;
21848;SDS011;11089;49.852;19.700;2024-03-29T09:39:23;0.60;;;0.60;;
21848;SDS011;11089;49.852;19.700;2024-03-29T09:42:24;0.60;;;0.60;;
21848;SDS011;11089;49.852;19.700;2024-03-29T09:45:26;1.17;;;0.52;;
21848;SDS011;11089;49.852;19.700;2024-03-29T09:48:27;1.50;;;0.70;;
21848;SDS011;11089;49.852;19.700;2024-03-29T09:51:36;0.80;;;0.70;;
21848;SDS011;11089;49.852;19.700;2024-03-29T09:54:38;0.88;;;0.60;;
21848;SDS011;11089;49.852;19.700;2024-03-29T09:57:39;0.60;;;0.60;;
21848;SDS011;11089;49.852;19.700;2024-03-29T10:00:40;0.75;;;0.60;;
21848;SDS011;11089;49.852;19.700;2024-03-29T10:03:42;0.60;;;0.60;;
21848;SDS011;11089;49.852;19.700;2024-03-29T10:06:48;0.40;;;0.40;;
21848;SDS011;11089;49.852;19.700;2024-03-29T10:09:50;0.80;;;0.60;;
21848;SDS011;11089;49.852;19.700;2024-03-29T10:12:52;0.52;;;0.52;;
21848;SDS011;11089;49.852;19.700;2024-03-29T10:15:54;0.77;;;0.60;;
21848;SDS011;11089;49.852;19.700;2024-03-29T10:18:59;0.55;;;0.55;;
21848;SDS011;11089;49.852;19.700;2024-03-29T10:22:07;0.60;;;0.60;;
21848;SDS011;11089;49.852;19.700;2024-03-29T10:25:08;1.92;;;0.70;;
21848;SDS011;11089;49.852;19.700;2024-03-29T10:28:09;0.77;;;0.60;;
21848;SDS011;11089;49.852;19.700;2024-03-29T10:31:11;1.23;;;0.73;;
21848;SDS011;11089;49.852;19.700;2024-03-29T10:34:14;0.75;;;0.50;;
21848;SDS011;11089;49.852;19.700;2024-03-29T10:37:15;0.40;;;0.40;;
21848;SDS011;11089;49.852;19.700;2024-03-29T10:40:18;0.60;;;0.60;;
21848;SDS011;11089;49.852;19.700;2024-03-29T10:43:22;1.48;;;0.60;;
21848;SDS011;11089;49.852;19.700;2024-03-29T10:46:24;0.60;;;0.60;;
21848;SDS011;11089;49.852;19.700;2024-03-29T10:49:26;0.50;;;0.50;;
21848;SDS011;11089;49.852;19.700;2024-03-29T10:52:30;0.63;;;0.60;;
21848;SDS011;11089;49.852;19.700;2024-03-29T10:55:35;0.77;;;0.60;;
21848;SDS011;11089;49.852;19.700;2024-03-29T10:58:37;0.70;;;0.70;;
21848;SDS011;11089;49.852;19.700;2024-03-29T11:01:48;1.10;;;0.70;;
21848;SDS011;11089;49.852;19.700;2024-03-29T11:04:52;0.60;;;0.60;;
21848;SDS011;11089;49.852;19.700;2024-03-29T11:07:54;0.60;;;0.60;;
21848;SDS011;11089;49.852;19.700;2024-03-29T11:10:57;0.50;;;0.50;;
21848;SDS011;11089;49.852;19.700;2024-03-29T11:14:05;0.65;;;0.60;;
21848;SDS011;11089;49.852;19.700;2024-03-29T11:17:15;1.10;;;0.60;;
21848;SDS011;11089;49.852;19.700;2024-03-29T11:20:16;0.50;;;0.50;;
21848;SDS011;11089;49.852;19.700;2024-03-29T11:23:26;1.40;;;0.90;;
21848;SDS011;11089;49.852;19.700;2024-03-29T11:26:27;0.50;;;0.50;;
21848;SDS011;11089;49.852;19.700;2024-03-29T11:29:29;0.50;;;0.50;;
21848;SDS011;11089;49.852;19.700;2024-03-29T11:32:35;0.60;;;0.60;;
21848;SDS011;11089;49.852;19.700;2024-03-29T11:35:41;0.68;;;0.55;;
21848;SDS011;11089;49.852;19.700;2024-03-29T11:38:42;0.77;;;0.73;;
21848;SDS011;11089;49.852;19.700;2024-03-29T11:41:47;0.82;;;0.57;;
21848;SDS011;11089;49.852;19.700;2024-03-29T11:44:49;0.60;;;0.60;;
21848;SDS011;11089;49.852;19.700;2024-03-29T11:47:50;0.60;;;0.50;;
21848;SDS011;11089;49.852;19.700;2024-03-29T11:50:51;1.40;;;0.80;;
21848;SDS011;11089;49.852;19.700;2024-03-29T11:53:53;2.25;;;0.80;;
21848;SDS011;11089;49.852;19.700;2024-03-29T11:56:55;0.80;;;0.70;;
21848;SDS011;11089;49.852;19.700;2024-03-29T11:59:56;0.95;;;0.77;;
21848;SDS011;11089;49.852;19.700;2024-03-29T12:02:57;1.33;;;0.95;;
21848;SDS011;11089;49.852;19.700;2024-03-29T12:05:59;0.73;;;0.70;;
21848;SDS011;11089;49.852;19.700;2024-03-29T12:09:03;0.80;;;0.80;;
21848;SDS011;11089;49.852;19.700;2024-03-29T12:12:05;1.48;;;0.75;;
21848;SDS011;11089;49.852;19.700;2024-03-29T12:15:10;0.93;;;0.57;;
21848;SDS011;11089;49.852;19.700;2024-03-29T12:18:12;0.95;;;0.65;;
21848;SDS011;11089;49.852;19.700;2024-03-29T12:21:16;0.80;;;0.60;;
21848;SDS011;11089;49.852;19.700;2024-03-29T12:24:17;0.95;;;0.73;;
21848;SDS011;11089;49.852;19.700;2024-03-29T12:27:19;1.10;;;0.63;;
21848;SDS011;11089;49.852;19.700;2024-03-29T12:30:22;1.30;;;0.70;;
21848;SDS011;11089;49.852;19.700;2024-03-29T12:33:24;1.80;;;0.60;;
21848;SDS011;11089;49.852;19.700;2024-03-29T12:36:25;2.70;;;0.80;;
21848;SDS011;11089;49.852;19.700;2024-03-29T12:39:29;1.95;;;0.70;;
21848;SDS011;11089;49.852;19.700;2024-03-29T12:42:33;1.33;;;0.70;;
21848;SDS011;11089;49.852;19.700;2024-03-29T12:45:35;0.98;;;0.68;;
21848;SDS011;11089;49.852;19.700;2024-03-29T12:48:37;1.38;;;0.88;;
21848;SDS011;11089;49.852;19.700;2024-03-29T12:51:39;0.57;;;0.52;;
21848;SDS011;11089;49.852;19.700;2024-03-29T12:54:41;1.10;;;0.68;;
21848;SDS011;11089;49.852;19.700;2024-03-29T12:57:42;2.00;;;0.82;;
21848;SDS011;11089;49.852;19.700;2024-03-29T13:00:44;1.05;;;0.70;;
21848;SDS011;11089;49.852;19.700;2024-03-29T13:03:45;1.05;;;0.55;;
21848;SDS011;11089;49.852;19.700;2024-03-29T13:06:46;3.00;;;0.98;;
21848;SDS011;11089;49.852;19.700;2024-03-29T13:09:47;1.10;;;0.68;;
21848;SDS011;11089;49.852;19.700;2024-03-29T13:12:48;1.67;;;0.90;;
21848;SDS011;11089;49.852;19.700;2024-03-29T13:15:53;2.03;;;0.88;;
21848;SDS011;11089;49.852;19.700;2024-03-29T13:18:54;1.65;;;1.00;;
21848;SDS011;11089;49.852;19.700;2024-03-29T13:21:55;2.38;;;0.80;;
21848;SDS011;11089;49.852;19.700;2024-03-29T13:24:56;1.27;;;0.80;;
21848;SDS011;11089;49.852;19.700;2024-03-29T13:27:57;5.22;;;1.40;;
21848;SDS011;11089;49.852;19.700;2024-03-29T13:30:58;3.22;;;1.02;;
21848;SDS011;11089;49.852;19.700;2024-03-29T13:33:59;4.63;;;1.85;;
21848;SDS011;11089;49.852;19.700;2024-03-29T13:37:11;3.55;;;1.40;;
21848;SDS011;11089;49.852;19.700;2024-03-29T13:40:13;4.05;;;1.17;;
21848;SDS011;11089;49.852;19.700;2024-03-29T13:43:15;4.28;;;1.70;;
21848;SDS011;11089;49.852;19.700;2024-03-29T13:46:16;2.40;;;1.10;;
21848;SDS011;11089;49.852;19.700;2024-03-29T13:49:17;3.55;;;0.95;;
21848;SDS011;11089;49.852;19.700;2024-03-29T13:52:20;3.15;;;1.60;;
21848;SDS011;11089;49.852;19.700;2024-03-29T13:55:22;2.38;;;1.02;;
21848;SDS011;11089;49.852;19.700;2024-03-29T13:58:26;4.25;;;1.20;;
21848;SDS011;11089;49.852;19.700;2024-03-29T14:01:28;3.28;;;1.67;;
21848;SDS011;11089;49.852;19.700;2024-03-29T14:04:29;2.33;;;1.42;;
21848;SDS011;11089;49.852;19.700;2024-03-29T14:07:31;3.80;;;1.30;;
21848;SDS011;11089;49.852;19.700;2024-03-29T14:10:32;2.03;;;0.90;;
21848;SDS011;11089;49.852;19.700;2024-03-29T14:13:36;2.25;;;1.05;;
21848;SDS011;11089;49.852;19.700;2024-03-29T14:16:37;2.55;;;0.93;;
21848;SDS011;11089;49.852;19.700;2024-03-29T14:19:38;3.05;;;0.90;;
21848;SDS011;11089;49.852;19.700;2024-03-29T14:22:40;3.22;;;1.00;;
21848;SDS011;11089;49.852;19.700;2024-03-29T14:25:41;3.72;;;1.15;;
21848;SDS011;11089;49.852;19.700;2024-03-29T14:28:42;4.15;;;1.15;;
21848;SDS011;11089;49.852;19.700;2024-03-29T14:31:43;1.90;;;0.85;;
21848;SDS011;11089;49.852;19.700;2024-03-29T14:34:44;3.05;;;1.00;;
21848;SDS011;11089;49.852;19.700;2024-03-29T14:37:46;2.70;;;0.98;;
21848;SDS011;11089;49.852;19.700;2024-03-29T14:40:47;4.32;;;1.25;;
21848;SDS011;11089;49.852;19.700;2024-03-29T14:43:48;2.90;;;0.90;;
21848;SDS011;11089;49.852;19.700;2024-03-29T14:46:51;2.35;;;1.00;;
21848;SDS011;11089;49.852;19.700;2024-03-29T14:49:52;1.73;;;1.15;;
21848;SDS011;11089;49.852;19.700;2024-03-29T14:52:53;2.55;;;0.80;;
21848;SDS011;11089;49.852;19.700;2024-03-29T14:55:54;2.58;;;1.08;;
21848;SDS011;11089;49.852;19.700;2024-03-29T14:58:55;2.15;;;1.20;;
21848;SDS011;11089;49.852;19.700;2024-03-29T15:01:56;2.83;;;1.13;;
21848;SDS011;11089;49.852;19.700;2024-03-29T15:04:58;2.88;;;1.00;;
21848;SDS011;11089;49.852;19.700;2024-03-29T15:07:59;2.45;;;1.10;;
21848;SDS011;11089;49.852;19.700;2024-03-29T15:11:00;3.15;;;1.02;;
21848;SDS011;11089;49.852;19.700;2024-03-29T15:14:02;1.48;;;0.90;;
21848;SDS011;11089;49.852;19.700;2024-03-29T15:17:04;2.60;;;1.10;;
21848;SDS011;11089;49.852;19.700;2024-03-29T15:20:05;3.13;;;1.55;;
21848;SDS011;11089;49.852;19.700;2024-03-29T15:23:09;4.10;;;1.10;;
21848;SDS011;11089;49.852;19.700;2024-03-29T15:26:10;2.17;;;1.10;;
21848;SDS011;11089;49.852;19.700;2024-03-29T15:29:11;3.40;;;1.23;;
21848;SDS011;11089;49.852;19.700;2024-03-29T15:32:12;3.00;;;1.17;;
21848;SDS011;11089;49.852;19.700;2024-03-29T15:35:13;2.42;;;1.38;;
21848;SDS011;11089;49.852;19.700;2024-03-29T15:38:14;3.22;;;1.10;;
21848;SDS011;11089;49.852;19.700;2024-03-29T15:41:20;3.13;;;1.48;;
21848;SDS011;11089;49.852;19.700;2024-03-29T15:44:21;2.65;;;0.98;;
21848;SDS011;11089;49.852;19.700;2024-03-29T15:47:22;2.00;;;0.90;;
21848;SDS011;11089;49.852;19.700;2024-03-29T15:50:23;2.38;;;0.90;;
21848;SDS011;11089;49.852;19.700;2024-03-29T15:53:24;3.53;;;1.27;;
21848;SDS011;11089;49.852;19.700;2024-03-29T15:56:25;6.28;;;1.20;;
21848;SDS011;11089;49.852;19.700;2024-03-29T15:59:26;10.70;;;1.52;;
21848;SDS011;11089;49.852;19.700;2024-03-29T16:02:27;3.65;;;1.10;;
21848;SDS011;11089;49.852;19.700;2024-03-29T16:05:28;1.95;;;1.30;;
21848;SDS011;11089;49.852;19.700;2024-03-29T16:08:29;5.90;;;1.42;;
21848;SDS011;11089;49.852;19.700;2024-03-29T16:11:36;5.07;;;1.50;;
21848;SDS011;11089;49.852;19.700;2024-03-29T16:14:38;3.30;;;1.13;;
21848;SDS011;11089;49.852;19.700;2024-03-29T16:17:38;5.85;;;1.90;;
21848;SDS011;11089;49.852;19.700;2024-03-29T16:20:39;5.13;;;2.05;;
21848;SDS011;11089;49.852;19.700;2024-03-29T16:23:40;5.50;;;2.03;;
21848;SDS011;11089;49.852;19.700;2024-03-29T16:26:41;2.60;;;1.30;;
21848;SDS011;11089;49.852;19.700;2024-03-29T16:29:42;4.35;;;1.70;;
21848;SDS011;11089;49.852;19.700;2024-03-29T16:32:43;4.93;;;1.98;;
21848;SDS011;11089;49.852;19.700;2024-03-29T16:35:44;5.40;;;2.33;;
21848;SDS011;11089;49.852;19.700;2024-03-29T16:38:45;5.30;;;2.60;;
21848;SDS011;11089;49.852;19.700;2024-03-29T16:41:46;5.60;;;2.40;;
21848;SDS011;11089;49.852;19.700;2024-03-29T16:44:48;5.97;;;1.83;;
21848;SDS011;11089;49.852;19.700;2024-03-29T16:47:49;3.70;;;1.60;;
21848;SDS011;11089;49.852;19.700;2024-03-29T16:50:50;10.68;;;2.88;;
21848;SDS011;11089;49.852;19.700;2024-03-29T16:53:51;15.02;;;5.35;;
21848;SDS011;11089;49.852;19.700;2024-03-29T16:56:52;11.48;;;4.65;;
21848;SDS011;11089;49.852;19.700;2024-03-29T16:59:53;9.95;;;3.10;;
21848;SDS011;11089;49.852;19.700;2024-03-29T17:02:54;8.32;;;3.35;;
21848;SDS011;11089;49.852;19.700;2024-03-29T17:05:56;4.88;;;2.47;;
21848;SDS011;11089;49.852;19.700;2024-03-29T17:08:56;10.75;;;3.83;;
21848;SDS011;11089;49.852;19.700;2024-03-29T17:11:57;9.10;;;2.92;;
21848;SDS011;11089;49.852;19.700;2024-03-29T17:14:58;8.63;;;3.28;;
21848;SDS011;11089;49.852;19.700;2024-03-29T17:18:00;6.85;;;2.90;;
21848;SDS011;11089;49.852;19.700;2024-03-29T17:21:01;10.07;;;3.42;;
21848;SDS011;11089;49.852;19.700;2024-03-29T17:24:03;6.97;;;3.35;;
21848;SDS011;11089;49.852;19.700;2024-03-29T17:27:04;11.80;;;3.45;;
21848;SDS011;11089;49.852;19.700;2024-03-29T17:30:05;5.88;;;2.67;;
21848;SDS011;11089;49.852;19.700;2024-03-29T17:33:08;6.97;;;3.67;;
21848;SDS011;11089;49.852;19.700;2024-03-29T17:36:09;4.35;;;1.95;;
21848;SDS011;11089;49.852;19.700;2024-03-29T17:39:10;5.68;;;2.13;;
21848;SDS011;11089;49.852;19.700;2024-03-29T17:42:14;6.47;;;2.22;;
21848;SDS011;11089;49.852;19.700;2024-03-29T17:45:15;9.27;;;3.53;;
21848;SDS011;11089;49.852;19.700;2024-03-29T17:48:16;11.50;;;2.97;;
21848;SDS011;11089;49.852;19.700;2024-03-29T17:51:17;8.95;;;3.42;;
21848;SDS011;11089;49.852;19.700;2024-03-29T17:54:18;6.07;;;2.63;;
21848;SDS011;11089;49.852;19.700;2024-03-29T17:57:19;9.68;;;3.55;;
21848;SDS011;11089;49.852;19.700;2024-03-29T18:00:20;10.10;;;3.55;;